Etusivu
METAR-TAF:

METAR-TAF

Lentoasemat :

Monroe Municipal Airport

Monroe, Wisconsin, Yhdysvallat

Leveyspiiri: 42-36-54N, Pituuspiiri: 089-35-27W, korkeus merenpinnasta: 331 m

Tämänhetkinen sää

Tämä raportti tehtiin 26 minuuttia sitten, kello 05.15 UTC
Tuuli 19 kn lännestä puuskistuen 27 kn:hen
Lämpötila -17°C
Kosteus 77%
Ilmanpaine 1016 hPa
Näkyvyys: 16.1 km
Pilvistä 1800 ft:n korkeudessa

METAR: KEFT 190515Z AUTO 28019G27KT 10SM OVC018 M17/M20 A3001 RMK AO2 T11711205

Aika: 23:41 (05:41 UTC)


TAF: puuttuu

Säähavainnot ja -ennusteet yli 4000 lentoasemalta (METAR- ja TAF-raportit).

Käytössä olevat sääasemat on merkitty karttaan keltaisilla ja punaisilla pisteillä.

Aseta hiiri pisteen päälle nähdäksesi sääaseman nimen.

Klikkaa sitten nähdäksesi säähavainnot ja -ennusteet.

Kartan vaihtaminen: klikkaa mustalla rastilla varustettuja vihreitä pisteitä, niin voit zoomata sisään; viivalla varustettua vihreää pistettä, niin voit zoomata ulos tai vihreitä nuolia, niin pääset viereisille kartoille.


METAR-TAF: